sensor_id;sensor_type;location;lat;lon;timestamp;temperature;humidity
67557;DHT22;54387;53.526;49.300;2022-10-31T00:01:39;8.30;68.90
67557;DHT22;54387;53.526;49.300;2022-10-31T00:04:05;8.30;69.00
67557;DHT22;54387;53.526;49.300;2022-10-31T00:06:31;8.30;69.00
67557;DHT22;54387;53.526;49.300;2022-10-31T00:09:02;8.30;69.00
67557;DHT22;54387;53.526;49.300;2022-10-31T00:11:28;8.30;68.90
67557;DHT22;54387;53.526;49.300;2022-10-31T00:13:54;8.30;68.60
67557;DHT22;54387;53.526;49.300;2022-10-31T00:16:24;8.20;68.50
67557;DHT22;54387;53.526;49.300;2022-10-31T00:18:51;8.20;68.50
67557;DHT22;54387;53.526;49.300;2022-10-31T00:21:18;8.20;68.50
67557;DHT22;54387;53.526;49.300;2022-10-31T00:23:44;8.20;68.40
67557;DHT22;54387;53.526;49.300;2022-10-31T00:26:10;8.10;67.30
67557;DHT22;54387;53.526;49.300;2022-10-31T00:28:36;8.00;67.10
67557;DHT22;54387;53.526;49.300;2022-10-31T00:31:03;8.00;66.90
67557;DHT22;54387;53.526;49.300;2022-10-31T00:33:30;7.90;65.70
67557;DHT22;54387;53.526;49.300;2022-10-31T00:35:56;7.80;64.70
67557;DHT22;54387;53.526;49.300;2022-10-31T00:38:22;7.70;64.30
67557;DHT22;54387;53.526;49.300;2022-10-31T00:40:48;7.60;64.30
67557;DHT22;54387;53.526;49.300;2022-10-31T00:43:14;7.60;64.10
67557;DHT22;54387;53.526;49.300;2022-10-31T00:45:41;7.50;63.50
67557;DHT22;54387;53.526;49.300;2022-10-31T00:48:07;7.40;63.60
67557;DHT22;54387;53.526;49.300;2022-10-31T00:50:34;7.30;63.90
67557;DHT22;54387;53.526;49.300;2022-10-31T00:53:00;7.30;64.00
67557;DHT22;54387;53.526;49.300;2022-10-31T00:55:26;7.20;64.10
67557;DHT22;54387;53.526;49.300;2022-10-31T00:57:52;7.20;64.00
67557;DHT22;54387;53.526;49.300;2022-10-31T01:00:18;7.10;63.80
67557;DHT22;54387;53.526;49.300;2022-10-31T01:02:44;7.00;64.00
67557;DHT22;54387;53.526;49.300;2022-10-31T01:05:11;7.00;64.20
67557;DHT22;54387;53.526;49.300;2022-10-31T01:07:38;6.90;64.40
67557;DHT22;54387;53.526;49.300;2022-10-31T01:10:05;6.90;64.40
67557;DHT22;54387;53.526;49.300;2022-10-31T01:12:44;6.90;64.60
67557;DHT22;54387;53.526;49.300;2022-10-31T01:15:11;6.80;64.40
67557;DHT22;54387;53.526;49.300;2022-10-31T01:17:38;6.80;64.30
67557;DHT22;54387;53.526;49.300;2022-10-31T01:20:04;6.70;64.40
67557;DHT22;54387;53.526;49.300;2022-10-31T01:22:31;6.70;64.60
67557;DHT22;54387;53.526;49.300;2022-10-31T01:24:58;6.70;64.80
67557;DHT22;54387;53.526;49.300;2022-10-31T01:27:24;6.70;64.90
67557;DHT22;54387;53.526;49.300;2022-10-31T01:29:50;6.70;65.00
67557;DHT22;54387;53.526;49.300;2022-10-31T01:32:16;6.70;65.10
67557;DHT22;54387;53.526;49.300;2022-10-31T01:34:42;6.70;65.20
67557;DHT22;54387;53.526;49.300;2022-10-31T01:37:08;6.60;65.10
67557;DHT22;54387;53.526;49.300;2022-10-31T01:39:34;6.60;65.20
67557;DHT22;54387;53.526;49.300;2022-10-31T01:42:00;6.50;65.30
67557;DHT22;54387;53.526;49.300;2022-10-31T01:46:56;6.50;65.20
67557;DHT22;54387;53.526;49.300;2022-10-31T01:49:26;6.40;64.50
67557;DHT22;54387;53.526;49.300;2022-10-31T01:51:54;6.30;64.20
67557;DHT22;54387;53.526;49.300;2022-10-31T01:54:23;6.30;64.30
67557;DHT22;54387;53.526;49.300;2022-10-31T01:56:52;6.30;64.40
67557;DHT22;54387;53.526;49.300;2022-10-31T01:59:21;6.20;63.90
67557;DHT22;54387;53.526;49.300;2022-10-31T02:01:48;6.20;64.00
67557;DHT22;54387;53.526;49.300;2022-10-31T02:04:15;6.10;64.10
67557;DHT22;54387;53.526;49.300;2022-10-31T02:06:46;6.10;64.30
67557;DHT22;54387;53.526;49.300;2022-10-31T02:09:13;6.10;64.10
67557;DHT22;54387;53.526;49.300;2022-10-31T02:11:40;6.10;63.90
67557;DHT22;54387;53.526;49.300;2022-10-31T02:14:06;6.00;63.90
67557;DHT22;54387;53.526;49.300;2022-10-31T02:16:32;5.90;63.90
67557;DHT22;54387;53.526;49.300;2022-10-31T02:18:58;5.90;64.00
67557;DHT22;54387;53.526;49.300;2022-10-31T02:21:29;5.90;64.20
67557;DHT22;54387;53.526;49.300;2022-10-31T02:34:34;5.80;64.50
67557;DHT22;54387;53.526;49.300;2022-10-31T02:37:18;5.80;64.50
67557;DHT22;54387;53.526;49.300;2022-10-31T02:39:54;5.80;64.60
67557;DHT22;54387;53.526;49.300;2022-10-31T02:42:32;5.70;64.70
67557;DHT22;54387;53.526;49.300;2022-10-31T02:45:14;5.70;64.60
67557;DHT22;54387;53.526;49.300;2022-10-31T02:47:44;5.60;64.40
67557;DHT22;54387;53.526;49.300;2022-10-31T02:50:19;5.50;63.60
67557;DHT22;54387;53.526;49.300;2022-10-31T02:52:49;5.40;62.60
67557;DHT22;54387;53.526;49.300;2022-10-31T02:57:51;5.00;62.20
67557;DHT22;54387;53.526;49.300;2022-10-31T03:00:18;4.90;62.10
67557;DHT22;54387;53.526;49.300;2022-10-31T03:05:21;4.60;62.20
67557;DHT22;54387;53.526;49.300;2022-10-31T03:08:04;4.50;62.80
67557;DHT22;54387;53.526;49.300;2022-10-31T03:10:37;4.40;62.50
67557;DHT22;54387;53.526;49.300;2022-10-31T03:13:17;4.30;62.50
67557;DHT22;54387;53.526;49.300;2022-10-31T03:15:48;4.40;62.90
67557;DHT22;54387;53.526;49.300;2022-10-31T03:18:17;4.40;62.90
67557;DHT22;54387;53.526;49.300;2022-10-31T03:20:48;4.40;63.10
67557;DHT22;54387;53.526;49.300;2022-10-31T03:23:16;4.40;63.00
67557;DHT22;54387;53.526;49.300;2022-10-31T03:25:43;4.40;62.90
67557;DHT22;54387;53.526;49.300;2022-10-31T03:28:10;4.40;63.00
67557;DHT22;54387;53.526;49.300;2022-10-31T03:30:38;4.40;63.00
67557;DHT22;54387;53.526;49.300;2022-10-31T03:33:06;4.50;63.10
67557;DHT22;54387;53.526;49.300;2022-10-31T03:35:34;4.50;62.90
67557;DHT22;54387;53.526;49.300;2022-10-31T03:38:01;4.50;63.00
67557;DHT22;54387;53.526;49.300;2022-10-31T03:40:28;4.60;63.10
67557;DHT22;54387;53.526;49.300;2022-10-31T03:42:57;4.60;63.10
67557;DHT22;54387;53.526;49.300;2022-10-31T03:45:24;4.60;62.90
67557;DHT22;54387;53.526;49.300;2022-10-31T03:47:52;4.60;62.90
67557;DHT22;54387;53.526;49.300;2022-10-31T03:50:18;4.60;63.10
67557;DHT22;54387;53.526;49.300;2022-10-31T03:52:46;4.60;63.10
67557;DHT22;54387;53.526;49.300;2022-10-31T03:55:18;4.60;63.20
67557;DHT22;54387;53.526;49.300;2022-10-31T03:57:53;4.60;63.30
67557;DHT22;54387;53.526;49.300;2022-10-31T04:00:21;4.70;63.30
67557;DHT22;54387;53.526;49.300;2022-10-31T04:05:17;4.70;63.20
67557;DHT22;54387;53.526;49.300;2022-10-31T04:07:44;4.70;63.00
67557;DHT22;54387;53.526;49.300;2022-10-31T04:10:11;4.70;62.90
67557;DHT22;54387;53.526;49.300;2022-10-31T04:12:38;4.60;62.80
67557;DHT22;54387;53.526;49.300;2022-10-31T04:15:05;4.50;62.90
67557;DHT22;54387;53.526;49.300;2022-10-31T04:17:33;4.50;63.00
67557;DHT22;54387;53.526;49.300;2022-10-31T04:20:00;4.40;62.80
67557;DHT22;54387;53.526;49.300;2022-10-31T04:22:26;4.40;62.90
67557;DHT22;54387;53.526;49.300;2022-10-31T04:24:53;4.40;62.90
67557;DHT22;54387;53.526;49.300;2022-10-31T04:27:19;4.40;62.90
67557;DHT22;54387;53.526;49.300;2022-10-31T04:29:45;4.40;62.90
67557;DHT22;54387;53.526;49.300;2022-10-31T04:32:11;4.30;63.00
67557;DHT22;54387;53.526;49.300;2022-10-31T04:34:37;4.40;63.10
67557;DHT22;54387;53.526;49.300;2022-10-31T04:37:03;4.40;63.20
67557;DHT22;54387;53.526;49.300;2022-10-31T04:39:29;4.40;63.00
67557;DHT22;54387;53.526;49.300;2022-10-31T04:41:55;4.40;62.90
67557;DHT22;54387;53.526;49.300;2022-10-31T04:44:21;4.30;62.70
67557;DHT22;54387;53.526;49.300;2022-10-31T04:46:47;4.30;62.90
67557;DHT22;54387;53.526;49.300;2022-10-31T04:49:13;4.30;62.70
67557;DHT22;54387;53.526;49.300;2022-10-31T04:51:39;4.20;62.60
67557;DHT22;54387;53.526;49.300;2022-10-31T04:54:05;4.20;62.70
67557;DHT22;54387;53.526;49.300;2022-10-31T04:56:31;4.30;63.00
67557;DHT22;54387;53.526;49.300;2022-10-31T04:58:57;4.30;63.00
67557;DHT22;54387;53.526;49.300;2022-10-31T05:01:23;4.40;62.90
67557;DHT22;54387;53.526;49.300;2022-10-31T05:03:50;4.40;62.80
67557;DHT22;54387;53.526;49.300;2022-10-31T05:06:16;4.50;62.60
67557;DHT22;54387;53.526;49.300;2022-10-31T05:08:42;4.50;62.50
67557;DHT22;54387;53.526;49.300;2022-10-31T05:11:08;4.50;62.30
67557;DHT22;54387;53.526;49.300;2022-10-31T05:13:34;4.40;62.00
67557;DHT22;54387;53.526;49.300;2022-10-31T05:16:00;4.30;61.90
67557;DHT22;54387;53.526;49.300;2022-10-31T05:18:26;4.30;62.20
67557;DHT22;54387;53.526;49.300;2022-10-31T05:20:52;4.30;62.30
67557;DHT22;54387;53.526;49.300;2022-10-31T05:23:18;4.30;62.20
67557;DHT22;54387;53.526;49.300;2022-10-31T05:25:44;4.30;62.20
67557;DHT22;54387;53.526;49.300;2022-10-31T05:28:10;4.30;62.20
67557;DHT22;54387;53.526;49.300;2022-10-31T05:30:36;4.40;62.30
67557;DHT22;54387;53.526;49.300;2022-10-31T05:33:02;4.40;62.30
67557;DHT22;54387;53.526;49.300;2022-10-31T05:35:30;4.50;62.30
67557;DHT22;54387;53.526;49.300;2022-10-31T05:37:56;4.50;62.30
67557;DHT22;54387;53.526;49.300;2022-10-31T05:40:23;4.60;62.20
67557;DHT22;54387;53.526;49.300;2022-10-31T05:42:53;4.60;62.10
67557;DHT22;54387;53.526;49.300;2022-10-31T05:45:20;4.60;61.70
67557;DHT22;54387;53.526;49.300;2022-10-31T05:47:53;4.60;61.50
67557;DHT22;54387;53.526;49.300;2022-10-31T05:50:20;4.50;61.50
67557;DHT22;54387;53.526;49.300;2022-10-31T05:52:46;4.50;61.50
67557;DHT22;54387;53.526;49.300;2022-10-31T05:55:12;4.60;61.50
67557;DHT22;54387;53.526;49.300;2022-10-31T05:57:38;4.60;61.60
67557;DHT22;54387;53.526;49.300;2022-10-31T06:00:04;4.60;61.40
67557;DHT22;54387;53.526;49.300;2022-10-31T06:02:31;4.60;61.10
67557;DHT22;54387;53.526;49.300;2022-10-31T06:05:01;4.60;60.70
67557;DHT22;54387;53.526;49.300;2022-10-31T06:07:31;4.60;60.90
67557;DHT22;54387;53.526;49.300;2022-10-31T06:09:59;4.50;60.60
67557;DHT22;54387;53.526;49.300;2022-10-31T06:12:31;4.40;60.80
67557;DHT22;54387;53.526;49.300;2022-10-31T06:14:57;4.40;60.90
67557;DHT22;54387;53.526;49.300;2022-10-31T06:17:23;4.50;60.80
67557;DHT22;54387;53.526;49.300;2022-10-31T06:19:49;4.50;60.70
67557;DHT22;54387;53.526;49.300;2022-10-31T06:22:15;4.50;60.10
67557;DHT22;54387;53.526;49.300;2022-10-31T06:24:41;4.50;59.90
67557;DHT22;54387;53.526;49.300;2022-10-31T06:27:08;4.50;59.90
67557;DHT22;54387;53.526;49.300;2022-10-31T06:29:34;4.60;60.30
67557;DHT22;54387;53.526;49.300;2022-10-31T06:32:00;4.60;60.20
67557;DHT22;54387;53.526;49.300;2022-10-31T06:34:26;4.60;59.40
67557;DHT22;54387;53.526;49.300;2022-10-31T06:36:52;4.60;59.20
67557;DHT22;54387;53.526;49.300;2022-10-31T06:39:18;4.60;59.20
67557;DHT22;54387;53.526;49.300;2022-10-31T06:41:44;4.70;59.40
67557;DHT22;54387;53.526;49.300;2022-10-31T06:44:13;4.70;59.20
67557;DHT22;54387;53.526;49.300;2022-10-31T06:46:39;4.80;59.60
67557;DHT22;54387;53.526;49.300;2022-10-31T06:49:05;4.90;58.80
67557;DHT22;54387;53.526;49.300;2022-10-31T06:51:31;4.90;58.20
67557;DHT22;54387;53.526;49.300;2022-10-31T06:53:57;4.90;57.70
67557;DHT22;54387;53.526;49.300;2022-10-31T06:56:23;4.80;57.60
67557;DHT22;54387;53.526;49.300;2022-10-31T06:58:55;4.80;57.90
67557;DHT22;54387;53.526;49.300;2022-10-31T07:01:21;4.70;57.40
67557;DHT22;54387;53.526;49.300;2022-10-31T07:03:47;4.70;57.90
67557;DHT22;54387;53.526;49.300;2022-10-31T07:06:13;4.70;58.00
67557;DHT22;54387;53.526;49.300;2022-10-31T07:08:39;4.60;58.00
67557;DHT22;54387;53.526;49.300;2022-10-31T07:11:05;4.50;58.50
67557;DHT22;54387;53.526;49.300;2022-10-31T07:13:31;4.50;59.00
67557;DHT22;54387;53.526;49.300;2022-10-31T07:16:03;4.50;58.80
67557;DHT22;54387;53.526;49.300;2022-10-31T07:18:29;4.40;58.50
67557;DHT22;54387;53.526;49.300;2022-10-31T07:20:55;4.30;58.60
67557;DHT22;54387;53.526;49.300;2022-10-31T07:23:21;4.10;58.40
67557;DHT22;54387;53.526;49.300;2022-10-31T07:25:47;4.00;58.60
67557;DHT22;54387;53.526;49.300;2022-10-31T07:28:14;3.90;59.10
67557;DHT22;54387;53.526;49.300;2022-10-31T07:30:41;3.90;59.50
67557;DHT22;54387;53.526;49.300;2022-10-31T07:33:08;4.00;59.50
67557;DHT22;54387;53.526;49.300;2022-10-31T07:35:34;3.90;59.20
67557;DHT22;54387;53.526;49.300;2022-10-31T07:38:08;3.90;59.30
67557;DHT22;54387;53.526;49.300;2022-10-31T07:40:34;3.80;59.30
67557;DHT22;54387;53.526;49.300;2022-10-31T07:43:00;3.70;59.10
67557;DHT22;54387;53.526;49.300;2022-10-31T07:45:26;3.70;59.50
67557;DHT22;54387;53.526;49.300;2022-10-31T07:47:52;3.70;59.90
67557;DHT22;54387;53.526;49.300;2022-10-31T07:50:20;3.80;60.10
67557;DHT22;54387;53.526;49.300;2022-10-31T07:52:46;3.80;59.70
67557;DHT22;54387;53.526;49.300;2022-10-31T07:55:12;3.80;59.60
67557;DHT22;54387;53.526;49.300;2022-10-31T07:57:38;3.90;59.50
67557;DHT22;54387;53.526;49.300;2022-10-31T08:00:05;3.90;59.10
67557;DHT22;54387;53.526;49.300;2022-10-31T08:02:31;4.00;58.90
67557;DHT22;54387;53.526;49.300;2022-10-31T08:04:57;4.10;58.70
67557;DHT22;54387;53.526;49.300;2022-10-31T08:07:26;4.10;58.90
67557;DHT22;54387;53.526;49.300;2022-10-31T08:09:52;4.30;58.50
67557;DHT22;54387;53.526;49.300;2022-10-31T08:12:18;4.30;57.60
67557;DHT22;54387;53.526;49.300;2022-10-31T08:14:44;4.30;57.30
67557;DHT22;54387;53.526;49.300;2022-10-31T08:17:10;4.40;57.30
67557;DHT22;54387;53.526;49.300;2022-10-31T08:19:36;4.50;57.10
67557;DHT22;54387;53.526;49.300;2022-10-31T08:22:02;4.60;56.40
67557;DHT22;54387;53.526;49.300;2022-10-31T08:24:29;4.80;56.60
67557;DHT22;54387;53.526;49.300;2022-10-31T08:26:57;5.00;56.80
67557;DHT22;54387;53.526;49.300;2022-10-31T08:29:23;5.20;55.60
67557;DHT22;54387;53.526;49.300;2022-10-31T08:31:49;5.30;54.50
67557;DHT22;54387;53.526;49.300;2022-10-31T08:34:16;5.30;54.90
67557;DHT22;54387;53.526;49.300;2022-10-31T08:36:42;5.40;54.00
67557;DHT22;54387;53.526;49.300;2022-10-31T08:39:10;5.50;53.70
67557;DHT22;54387;53.526;49.300;2022-10-31T08:41:36;5.50;54.30
67557;DHT22;54387;53.526;49.300;2022-10-31T08:44:02;5.60;53.00
67557;DHT22;54387;53.526;49.300;2022-10-31T08:46:29;5.60;52.60
67557;DHT22;54387;53.526;49.300;2022-10-31T08:48:55;5.60;52.80
67557;DHT22;54387;53.526;49.300;2022-10-31T08:51:21;5.70;52.80
67557;DHT22;54387;53.526;49.300;2022-10-31T08:53:47;5.70;52.30
67557;DHT22;54387;53.526;49.300;2022-10-31T08:56:13;5.70;52.60
67557;DHT22;54387;53.526;49.300;2022-10-31T08:58:45;5.80;52.60
67557;DHT22;54387;53.526;49.300;2022-10-31T09:01:11;5.80;52.40
67557;DHT22;54387;53.526;49.300;2022-10-31T09:03:37;5.70;51.60
67557;DHT22;54387;53.526;49.300;2022-10-31T09:06:03;5.60;51.60
67557;DHT22;54387;53.526;49.300;2022-10-31T09:08:32;5.50;52.30
67557;DHT22;54387;53.526;49.300;2022-10-31T09:10:58;5.40;52.30
67557;DHT22;54387;53.526;49.300;2022-10-31T09:13:24;5.40;52.30
67557;DHT22;54387;53.526;49.300;2022-10-31T09:15:51;5.30;52.80
67557;DHT22;54387;53.526;49.300;2022-10-31T09:18:18;5.30;54.30
67557;DHT22;54387;53.526;49.300;2022-10-31T09:20:44;5.40;53.60
67557;DHT22;54387;53.526;49.300;2022-10-31T09:23:18;5.40;52.50
67557;DHT22;54387;53.526;49.300;2022-10-31T09:25:45;5.30;52.00
67557;DHT22;54387;53.526;49.300;2022-10-31T09:28:12;5.30;51.60
67557;DHT22;54387;53.526;49.300;2022-10-31T09:30:38;5.30;51.10
67557;DHT22;54387;53.526;49.300;2022-10-31T09:33:06;5.40;50.00
67557;DHT22;54387;53.526;49.300;2022-10-31T09:35:32;5.30;49.10
67557;DHT22;54387;53.526;49.300;2022-10-31T09:38:02;5.40;49.50
67557;DHT22;54387;53.526;49.300;2022-10-31T09:40:34;5.50;48.50
67557;DHT22;54387;53.526;49.300;2022-10-31T09:45:38;5.60;48.30
67557;DHT22;54387;53.526;49.300;2022-10-31T09:48:13;5.70;48.00
67557;DHT22;54387;53.526;49.300;2022-10-31T09:50:44;5.90;48.40
67557;DHT22;54387;53.526;49.300;2022-10-31T09:53:35;6.00;48.70
67557;DHT22;54387;53.526;49.300;2022-10-31T09:55:59;6.10;48.30
67557;DHT22;54387;53.526;49.300;2022-10-31T09:58:27;6.20;47.90
67557;DHT22;54387;53.526;49.300;2022-10-31T10:00:54;6.30;47.10
67557;DHT22;54387;53.526;49.300;2022-10-31T10:08:34;6.30;45.70
67557;DHT22;54387;53.526;49.300;2022-10-31T10:16:42;6.20;45.70
67557;DHT22;54387;53.526;49.300;2022-10-31T10:19:30;6.10;45.80
67557;DHT22;54387;53.526;49.300;2022-10-31T10:24:40;6.00;45.70
67557;DHT22;54387;53.526;49.300;2022-10-31T10:29:44;5.80;45.30
67557;DHT22;54387;53.526;49.300;2022-10-31T10:32:23;5.80;45.90
67557;DHT22;54387;53.526;49.300;2022-10-31T10:35:14;5.80;47.40
67557;DHT22;54387;53.526;49.300;2022-10-31T10:37:37;5.80;46.10
67557;DHT22;54387;53.526;49.300;2022-10-31T10:40:16;5.90;45.50
67557;DHT22;54387;53.526;49.300;2022-10-31T10:48:54;6.20;46.10
67557;DHT22;54387;53.526;49.300;2022-10-31T10:51:23;6.30;46.30
67557;DHT22;54387;53.526;49.300;2022-10-31T10:59:00;6.60;44.50
67557;DHT22;54387;53.526;49.300;2022-10-31T11:01:27;6.60;44.00
67557;DHT22;54387;53.526;49.300;2022-10-31T11:03:53;6.60;44.00
67557;DHT22;54387;53.526;49.300;2022-10-31T11:06:24;6.60;44.00
67557;DHT22;54387;53.526;49.300;2022-10-31T11:08:54;6.60;43.70
67557;DHT22;54387;53.526;49.300;2022-10-31T11:11:27;6.50;43.70
67557;DHT22;54387;53.526;49.300;2022-10-31T11:14:00;6.50;43.90
67557;DHT22;54387;53.526;49.300;2022-10-31T11:16:33;6.60;44.20
67557;DHT22;54387;53.526;49.300;2022-10-31T11:19:34;6.70;44.20
67557;DHT22;54387;53.526;49.300;2022-10-31T11:21:53;6.80;45.30
67557;DHT22;54387;53.526;49.300;2022-10-31T11:24:21;6.90;43.60
67557;DHT22;54387;53.526;49.300;2022-10-31T11:26:50;6.90;43.20
67557;DHT22;54387;53.526;49.300;2022-10-31T11:29:20;6.90;43.20
67557;DHT22;54387;53.526;49.300;2022-10-31T11:31:48;6.70;42.40
67557;DHT22;54387;53.526;49.300;2022-10-31T11:34:18;6.50;43.00
67557;DHT22;54387;53.526;49.300;2022-10-31T11:36:45;6.30;43.40
67557;DHT22;54387;53.526;49.300;2022-10-31T11:39:14;6.20;43.90
67557;DHT22;54387;53.526;49.300;2022-10-31T11:41:41;6.20;44.10
67557;DHT22;54387;53.526;49.300;2022-10-31T11:44:11;6.10;44.40
67557;DHT22;54387;53.526;49.300;2022-10-31T11:46:39;6.10;44.80
67557;DHT22;54387;53.526;49.300;2022-10-31T11:49:11;6.10;44.80
67557;DHT22;54387;53.526;49.300;2022-10-31T11:51:39;6.10;45.10
67557;DHT22;54387;53.526;49.300;2022-10-31T11:54:05;6.00;45.30
67557;DHT22;54387;53.526;49.300;2022-10-31T11:56:41;6.00;45.90
67557;DHT22;54387;53.526;49.300;2022-10-31T12:02:14;5.90;47.20
67557;DHT22;54387;53.526;49.300;2022-10-31T12:04:44;5.70;48.20
67557;DHT22;54387;53.526;49.300;2022-10-31T12:07:13;5.70;48.70
67557;DHT22;54387;53.526;49.300;2022-10-31T12:09:39;5.70;49.30
67557;DHT22;54387;53.526;49.300;2022-10-31T12:18:01;5.50;50.20
67557;DHT22;54387;53.526;49.300;2022-10-31T12:30:43;5.20;51.10
67557;DHT22;54387;53.526;49.300;2022-10-31T12:40:52;5.20;51.20
67557;DHT22;54387;53.526;49.300;2022-10-31T12:45:52;5.20;51.30
67557;DHT22;54387;53.526;49.300;2022-10-31T12:48:24;5.20;51.40
67557;DHT22;54387;53.526;49.300;2022-10-31T12:51:15;5.20;51.50
67557;DHT22;54387;53.526;49.300;2022-10-31T13:01:30;5.00;51.70
67557;DHT22;54387;53.526;49.300;2022-10-31T13:04:24;5.00;51.50
67557;DHT22;54387;53.526;49.300;2022-10-31T13:06:50;5.00;51.60
67557;DHT22;54387;53.526;49.300;2022-10-31T13:09:18;4.90;51.80
67557;DHT22;54387;53.526;49.300;2022-10-31T13:11:46;4.90;51.90
67557;DHT22;54387;53.526;49.300;2022-10-31T13:16:59;4.80;52.20
67557;DHT22;54387;53.526;49.300;2022-10-31T13:19:27;4.80;52.30
67557;DHT22;54387;53.526;49.300;2022-10-31T13:22:06;4.80;52.50
67557;DHT22;54387;53.526;49.300;2022-10-31T13:24:50;4.80;52.60
67557;DHT22;54387;53.526;49.300;2022-10-31T13:27:25;4.70;52.70
67557;DHT22;54387;53.526;49.300;2022-10-31T13:32:21;4.70;53.10
67557;DHT22;54387;53.526;49.300;2022-10-31T13:34:47;4.70;53.30
67557;DHT22;54387;53.526;49.300;2022-10-31T13:37:20;4.70;53.50
67557;DHT22;54387;53.526;49.300;2022-10-31T13:45:16;4.70;54.00
67557;DHT22;54387;53.526;49.300;2022-10-31T13:47:54;4.70;54.10
67557;DHT22;54387;53.526;49.300;2022-10-31T13:50:22;4.70;54.30
67557;DHT22;54387;53.526;49.300;2022-10-31T13:53:02;4.60;54.30
67557;DHT22;54387;53.526;49.300;2022-10-31T13:55:42;4.60;54.50
67557;DHT22;54387;53.526;49.300;2022-10-31T13:58:22;4.60;54.60
67557;DHT22;54387;53.526;49.300;2022-10-31T14:01:05;4.60;54.60
67557;DHT22;54387;53.526;49.300;2022-10-31T14:03:37;4.60;54.70
67557;DHT22;54387;53.526;49.300;2022-10-31T14:06:06;4.70;55.00
67557;DHT22;54387;53.526;49.300;2022-10-31T14:08:34;4.70;55.00
67557;DHT22;54387;53.526;49.300;2022-10-31T14:11:01;4.60;54.80
67557;DHT22;54387;53.526;49.300;2022-10-31T14:13:43;4.70;55.00
67557;DHT22;54387;53.526;49.300;2022-10-31T14:16:20;4.60;54.90
67557;DHT22;54387;53.526;49.300;2022-10-31T14:18:48;4.60;54.20
67557;DHT22;54387;53.526;49.300;2022-10-31T14:23:51;4.50;54.20
67557;DHT22;54387;53.526;49.300;2022-10-31T14:26:19;4.50;54.20
67557;DHT22;54387;53.526;49.300;2022-10-31T14:28:46;4.50;54.20
67557;DHT22;54387;53.526;49.300;2022-10-31T14:31:33;4.50;54.20
67557;DHT22;54387;53.526;49.300;2022-10-31T14:34:17;4.50;53.90
67557;DHT22;54387;53.526;49.300;2022-10-31T14:36:56;4.40;53.90
67557;DHT22;54387;53.526;49.300;2022-10-31T14:39:26;4.40;54.20
67557;DHT22;54387;53.526;49.300;2022-10-31T14:45:05;4.40;54.40
67557;DHT22;54387;53.526;49.300;2022-10-31T14:52:17;4.40;54.40
67557;DHT22;54387;53.526;49.300;2022-10-31T14:54:46;4.40;54.20
67557;DHT22;54387;53.526;49.300;2022-10-31T14:57:16;4.40;54.20
67557;DHT22;54387;53.526;49.300;2022-10-31T14:59:47;4.40;54.20
67557;DHT22;54387;53.526;49.300;2022-10-31T15:02:17;4.40;54.20
67557;DHT22;54387;53.526;49.300;2022-10-31T15:04:44;4.40;54.10
67557;DHT22;54387;53.526;49.300;2022-10-31T15:07:13;4.30;54.10
67557;DHT22;54387;53.526;49.300;2022-10-31T15:09:41;4.30;54.00
67557;DHT22;54387;53.526;49.300;2022-10-31T15:12:26;4.20;53.90
67557;DHT22;54387;53.526;49.300;2022-10-31T15:14:52;4.20;54.20
67557;DHT22;54387;53.526;49.300;2022-10-31T15:17:20;4.20;54.40
67557;DHT22;54387;53.526;49.300;2022-10-31T15:19:46;4.20;54.40
67557;DHT22;54387;53.526;49.300;2022-10-31T15:22:16;4.20;54.50
67557;DHT22;54387;53.526;49.300;2022-10-31T15:24:43;4.10;54.60
67557;DHT22;54387;53.526;49.300;2022-10-31T15:27:10;4.10;54.40
67557;DHT22;54387;53.526;49.300;2022-10-31T15:29:46;4.10;54.40
67557;DHT22;54387;53.526;49.300;2022-10-31T15:32:33;4.10;54.50
67557;DHT22;54387;53.526;49.300;2022-10-31T15:34:59;4.20;54.60
67557;DHT22;54387;53.526;49.300;2022-10-31T15:37:25;4.10;54.30
67557;DHT22;54387;53.526;49.300;2022-10-31T15:39:52;4.10;54.30
67557;DHT22;54387;53.526;49.300;2022-10-31T15:45:15;4.10;54.40
67557;DHT22;54387;53.526;49.300;2022-10-31T15:47:44;4.10;54.50
67557;DHT22;54387;53.526;49.300;2022-10-31T15:52:56;4.10;53.90
67557;DHT22;54387;53.526;49.300;2022-10-31T15:55:23;4.10;53.80
67557;DHT22;54387;53.526;49.300;2022-10-31T15:57:50;4.10;53.90
67557;DHT22;54387;53.526;49.300;2022-10-31T16:00:50;4.10;54.20
67557;DHT22;54387;53.526;49.300;2022-10-31T16:05:56;4.20;54.30
67557;DHT22;54387;53.526;49.300;2022-10-31T16:08:23;4.20;54.40
67557;DHT22;54387;53.526;49.300;2022-10-31T16:10:50;4.30;54.40
67557;DHT22;54387;53.526;49.300;2022-10-31T16:13:16;4.30;54.30
67557;DHT22;54387;53.526;49.300;2022-10-31T16:15:49;4.30;54.40
67557;DHT22;54387;53.526;49.300;2022-10-31T16:18:16;4.30;54.60
67557;DHT22;54387;53.526;49.300;2022-10-31T16:20:47;4.40;54.70
67557;DHT22;54387;53.526;49.300;2022-10-31T16:23:16;4.40;54.50
67557;DHT22;54387;53.526;49.300;2022-10-31T16:25:43;4.40;54.30
67557;DHT22;54387;53.526;49.300;2022-10-31T16:28:13;4.40;54.30
67557;DHT22;54387;53.526;49.300;2022-10-31T16:30:41;4.40;54.20
67557;DHT22;54387;53.526;49.300;2022-10-31T16:35:52;4.30;54.00
67557;DHT22;54387;53.526;49.300;2022-10-31T16:38:18;4.30;54.10
67557;DHT22;54387;53.526;49.300;2022-10-31T16:40:44;4.30;53.90
67557;DHT22;54387;53.526;49.300;2022-10-31T16:43:12;4.30;53.80
67557;DHT22;54387;53.526;49.300;2022-10-31T16:45:42;4.30;53.90
67557;DHT22;54387;53.526;49.300;2022-10-31T16:48:12;4.30;54.00
67557;DHT22;54387;53.526;49.300;2022-10-31T16:50:40;4.30;54.00
67557;DHT22;54387;53.526;49.300;2022-10-31T16:53:08;4.30;53.80
67557;DHT22;54387;53.526;49.300;2022-10-31T16:55:34;4.20;53.70
67557;DHT22;54387;53.526;49.300;2022-10-31T16:58:00;4.20;53.80
67557;DHT22;54387;53.526;49.300;2022-10-31T17:00:27;4.20;53.80
67557;DHT22;54387;53.526;49.300;2022-10-31T17:02:54;4.20;53.80
67557;DHT22;54387;53.526;49.300;2022-10-31T17:05:22;4.20;53.90
67557;DHT22;54387;53.526;49.300;2022-10-31T17:07:57;4.20;54.00
67557;DHT22;54387;53.526;49.300;2022-10-31T17:10:24;4.20;54.00
67557;DHT22;54387;53.526;49.300;2022-10-31T17:12:50;4.10;54.00
67557;DHT22;54387;53.526;49.300;2022-10-31T17:15:21;4.10;54.10
67557;DHT22;54387;53.526;49.300;2022-10-31T17:17:47;4.20;54.20
67557;DHT22;54387;53.526;49.300;2022-10-31T17:22:45;4.20;54.10
67557;DHT22;54387;53.526;49.300;2022-10-31T17:25:15;4.30;54.00
67557;DHT22;54387;53.526;49.300;2022-10-31T17:27:42;4.20;53.90
67557;DHT22;54387;53.526;49.300;2022-10-31T17:30:09;4.20;53.80
67557;DHT22;54387;53.526;49.300;2022-10-31T17:32:36;4.20;54.00
67557;DHT22;54387;53.526;49.300;2022-10-31T17:35:02;4.20;54.20
67557;DHT22;54387;53.526;49.300;2022-10-31T17:37:28;4.20;54.10
67557;DHT22;54387;53.526;49.300;2022-10-31T17:39:54;4.20;53.90
67557;DHT22;54387;53.526;49.300;2022-10-31T17:42:20;4.20;54.00